Latest Weather Observations for Glen Innes Airport

IDN60801

Issued at 6:33 am EST Sunday 31 July 2016 (issued every 30 minutes, with the page automatically refreshed every 10 minutes)

About weather observations | Map of weather stations | Latest weather observations for NSW | Other Formats
Station Details ID: 056243 Name: GLEN INNES AIRPORT AWS Lat: -29.68 Lon: 151.69 Height: 1044.3 m
Data from the previous 72 hours. | See also: Recent months at Glen Innes Airport
Date/Time
EST
Temp
°C
App
Temp
°C
Dew
Point
°C
Rel
Hum
%
Delta-T
°C
Wind Press
QNH
hPa
Press
MSL
hPa
Rain since
9am
mm
Dir  Spd
km/h
Gust
km/h
Spd
kts
Gust
kts
31/06:30am -3.3 -5.8 -3.8 96 0.0 CALM 0 0 0 0 1020.8 1021.4 0.0
31/06:00am -2.6 -5.0 -3.1 96 0.1 CALM 0 0 0 0 1020.6 1021.2 0.0
31/05:30am -2.1 -4.4 -2.5 97 0.0 CALM 0 0 0 0 1020.5 1021.1 0.0
31/05:00am -1.4 -3.6 -1.8 97 0.1 CALM 0 0 0 0 1020.3 1020.9 0.0
31/04:30am -0.6 -2.7 -1.0 97 0.1 CALM 0 0 0 0 1020.4 1021.0 0.0
31/04:20am -0.1 -2.2 -0.5 97 0.1 CALM 0 0 0 0 1020.3 1020.9 0.0
31/04:00am 1.5 -0.3 1.1 97 0.2 CALM 0 0 0 0 1020.2 1020.8 0.0
31/03:30am 1.4 -0.4 1.1 98 0.1 CALM 0 0 0 0 1020.0 1020.7 0.0
31/03:03am 0.2 -1.8 -0.2 97 0.2 CALM 0 0 0 0 1020.2 1020.8 0.0
31/03:00am 0.0 -2.0 -0.4 97 0.2 CALM 0 0 0 0 1020.3 1020.9 0.0
31/02:51am -0.5 -2.6 -0.9 97 0.1 CALM 0 0 0 0 1020.3 1020.9 0.0
31/02:45am -0.7 -2.8 -1.1 97 0.1 CALM 0 0 0 0 1020.3 1020.9 0.0
31/02:30am -1.2 -3.4 -1.6 97 0.1 CALM 0 0 0 0 1020.6 1021.2 0.0
31/02:10am -2.6 -5.0 -3.3 95 0.1 CALM 0 0 0 0 1020.9 1021.6 0.0
31/02:00am -3.2 -5.7 -4.2 93 0.2 CALM 0 0 0 0 1021.0 1021.7 0.0
31/01:30am -2.3 -4.7 -3.3 93 0.2 CALM 0 0 0 0 1021.2 1021.8 0.0
31/01:00am -2.0 -4.4 -2.8 94 0.2 CALM 0 0 0 0 1021.6 1022.2 0.0
31/12:30am -2.6 -5.1 -3.7 92 0.3 CALM 0 0 0 0 1021.8 1022.5 0.0
31/12:00am -1.4 -3.7 -2.5 92 0.3 CALM 0 0 0 0 1021.7 1022.4 0.0
 
Date/Time
EST
Temp
°C
App
Temp
°C
Dew
Point
°C
Rel
Hum
%
Delta-T
°C
Wind Press
QNH
hPa
Press
MSL
hPa
Rain since
9am
mm
Dir  Spd
km/h
Gust
km/h
Spd
kts
Gust
kts
30/11:30pm -2.1 -4.5 -3.4 91 0.4 CALM 0 0 0 0 1022.2 1022.8 0.0
30/11:00pm -1.9 -4.3 -2.9 93 0.3 CALM 0 0 0 0 1022.0 1022.7 0.0
30/10:30pm -0.3 -2.4 -0.9 96 0.2 CALM 0 0 0 0 1022.2 1022.8 0.0
30/10:00pm -0.7 -2.9 -1.8 92 0.4 CALM 0 0 0 0 1022.2 1022.8 0.0
30/09:30pm -0.7 -3.0 -2.0 91 0.4 CALM 0 0 0 0 1021.8 1022.5 0.0
30/09:00pm 0.5 -1.6 -0.9 90 0.6 CALM 0 0 0 0 1021.8 1022.5 0.0
30/08:30pm 0.4 -1.8 -1.7 86 0.8 CALM 0 0 0 0 1021.7 1022.4 0.0
30/08:00pm 2.2 0.3 0.3 87 0.8 CALM 0 0 0 0 1021.8 1022.5 0.0
30/07:30pm 3.0 -0.8 -0.8 76 1.5 S 9 11 5 6 1021.8 1022.5 0.0
30/07:00pm 4.0 2.1 0.5 78 1.4 CALM 0 0 0 0 1021.6 1022.2 0.0
30/06:30pm 4.8 2.9 0.4 73 1.8 CALM 0 0 0 0 1021.3 1021.9 0.0
30/06:00pm 6.8 4.8 -0.2 61 2.9 CALM 0 0 0 0 1020.9 1021.6 0.0
30/05:30pm 8.9 5.6 -0.1 53 3.8 WNW 7 11 4 6 1020.5 1021.1 0.0
30/05:00pm 12.3 8.5 -0.6 41 5.6 WNW 9 13 5 7 1020.3 1020.9 0.0
30/04:30pm 14.5 10.5 0.7 39 6.3 W 11 17 6 9 1020.0 1020.7 0.0
30/04:00pm 15.9 10.8 -5.2 23 8.5 NW 13 17 7 9 1019.9 1020.5 0.0
30/03:30pm 16.7 11.9 -5.7 21 9.1 NW 11 17 6 9 1019.9 1020.5 0.0
30/03:00pm 16.8 11.4 -4.4 23 8.8 WNW 15 20 8 11 1019.9 1020.5 0.0
30/02:30pm 17.2 12.2 -4.7 22 9.1 NW 13 19 7 10 1019.8 1020.4 0.0
30/02:00pm 16.9 12.4 -6.8 19 9.4 NW 9 17 5 9 1019.7 1020.3 0.0
30/01:30pm 16.9 11.5 -8.3 17 9.7 NW 13 28 7 15 1019.9 1020.5 0.0
30/01:00pm 16.7 12.9 -5.1 22 8.9 N 6 19 3 10 1020.3 1020.9 0.0
30/12:30pm 16.5 11.9 -7.9 18 9.4 NNW 9 19 5 10 1020.7 1021.3 0.0
30/12:00pm 16.1 12.7 -5.0 23 8.6 NNW 4 13 2 7 1021.0 1021.7 0.0
30/11:30am 15.7 10.8 -7.2 20 8.9 NNE 11 17 6 9 1021.5 1022.1 0.0
30/11:00am 14.7 11.2 -6.2 23 8.2 NE 4 15 2 8 1021.8 1022.5 0.0
30/10:30am 13.6 11.8 0.9 42 5.7 CALM 0 0 0 0 1022.2 1022.8 0.0
30/10:00am 11.5 9.7 1.5 50 4.5 CALM 0 0 0 0 1022.3 1022.9 0.0
30/09:30am 9.1 7.3 1.0 57 3.5 CALM 0 0 0 0 1022.5 1023.1 0.0
30/09:00am 6.2 4.6 2.7 78 1.5 CALM 0 0 0 0 1022.4 1023.0 0.2
30/08:30am 1.2 -0.8 0.2 93 0.4 CALM 0 0 0 0 1022.4 1023.0 0.2
30/08:00am -1.0 -3.2 -1.6 96 0.2 CALM 0 0 0 0 1022.2 1022.8 0.2
30/07:35am -2.8 -5.2 -3.2 97 0.0 CALM 0 0 0 0 1021.9 1022.6 0.0
30/07:33am -2.9 -5.3 -3.3 97 0.0 CALM 0 0 0 0 1021.9 1022.6 0.0
30/07:32am -2.9 -5.3 -3.3 97 0.0 CALM 0 0 0 0 1021.8 1022.5 0.0
30/07:30am -3.0 -5.4 -3.3 98 0.0 CALM 0 0 0 0 1021.8 1022.5 0.0
30/07:14am -4.4 -7.0 -4.8 97 -0.1 CALM 0 0 0 0 1021.8 1022.5 0.0
30/07:04am -5.5 -8.2 -5.9 97 -0.1 CALM 0 0 0 0 1021.8 1022.5 0.0
30/07:00am -5.5 -8.2 -5.9 97 -0.1 CALM 0 0 0 0 1021.8 1022.5 0.0
30/06:41am -6.1 -8.9 -6.8 95 0.0 CALM 0 0 0 0 1021.6 1022.2 0.0
30/06:35am -5.9 -8.6 -6.4 96 -0.1 CALM 0 0 0 0 1021.6 1022.2 0.0
30/06:30am -5.4 -8.1 -5.8 97 -0.1 CALM 0 0 0 0 1021.6 1022.2 0.0
30/06:10am -5.7 -8.4 -6.2 96 -0.1 CALM 0 0 0 0 1021.3 1021.9 0.0
30/06:06am -5.8 -8.5 -6.3 96 -0.1 CALM 0 0 0 0 1021.3 1021.9 0.0
30/06:00am -5.7 -8.4 -6.2 96 -0.1 CALM 0 0 0 0 1021.3 1021.9 0.0
30/05:57am -5.8 -8.5 -6.3 96 -0.1 CALM 0 0 0 0 1021.3 1021.9 0.0
30/05:53am -5.9 -8.7 -6.7 94 0.0 CALM 0 0 0 0 1021.3 1021.9 0.0
30/05:50am -6.0 -8.8 -6.8 94 0.0 CALM 0 0 0 0 1021.3 1021.9 0.0
30/05:30am -5.3 -8.0 -6.0 95 0.0 CALM 0 0 0 0 1021.2 1021.8 0.0
30/05:09am -5.6 -8.3 -6.3 95 0.0 CALM 0 0 0 0 1021.3 1021.9 0.0
30/05:00am -5.1 -7.8 -5.8 95 0.0 CALM 0 0 0 0 1021.0 1021.7 0.0
30/04:55am -5.4 -8.5 -6.1 95 0.0 ESE 2 9 1 5 1021.2 1021.8 0.0
30/04:43am -4.2 -7.5 -4.6 97 0.0 ESE 4 11 2 6 1021.0 1021.7 0.0
30/04:38am -4.4 -7.0 -4.8 97 -0.1 CALM 0 0 0 0 1020.9 1021.6 0.0
30/04:33am -4.9 -7.6 -5.6 95 0.0 CALM 0 0 0 0 1021.0 1021.7 0.0
30/04:30am -5.1 -7.8 -5.8 95 0.0 CALM 0 0 0 0 1021.0 1021.7 0.0
30/04:08am -4.5 -7.1 -4.9 97 -0.1 CALM 0 0 0 0 1021.0 1021.7 0.0
30/04:00am -4.6 -7.2 -5.1 96 0.0 CALM 0 0 0 0 1021.0 1021.7 0.0
30/03:52am -5.0 -7.7 -5.5 96 0.0 CALM 0 0 0 0 1021.0 1021.7 0.0
30/03:46am -4.6 -7.2 -5.1 96 0.0 CALM 0 0 0 0 1021.0 1021.7 0.0
30/03:30am -5.0 -7.7 -5.5 96 0.0 CALM 0 0 0 0 1021.2 1021.8 0.0
30/03:25am -4.6 -7.2 -5.0 97 -0.1 CALM 0 0 0 0 1021.3 1021.9 0.0
30/03:18am -4.7 -7.3 -5.2 96 0.0 CALM 0 0 0 0 1021.3 1021.9 0.0
30/03:16am -5.1 -7.8 -5.8 95 0.0 CALM 0 0 0 0 1021.3 1021.9 0.0
30/03:00am -4.7 -7.3 -5.2 96 0.0 CALM 0 0 0 0 1021.5 1022.1 0.0
30/02:57am -4.4 -7.0 -4.8 97 -0.1 CALM 0 0 0 0 1021.5 1022.1 0.0
30/02:30am -4.9 -7.6 -5.7 94 0.1 CALM 0 0 0 0 1021.5 1022.1 0.0
30/02:06am -4.7 -7.4 -5.5 94 0.1 CALM 0 0 0 0 1021.7 1022.4 0.0
30/02:00am -4.6 -7.2 -5.3 95 0.0 CALM 0 0 0 0 1021.7 1022.4 0.0
30/01:30am -4.5 -7.2 -5.5 93 0.1 CALM 0 0 0 0 1021.9 1022.6 0.0
30/01:00am -3.4 -5.9 -3.9 96 0.0 CALM 0 0 0 0 1022.3 1022.9 0.0
30/12:30am -4.4 -7.1 -5.6 91 0.2 CALM 0 0 0 0 1022.6 1023.3 0.0
30/12:00am -2.4 -4.8 -2.8 97 0.0 CALM 0 0 0 0 1022.5 1023.1 0.0
 
Date/Time
EST
Temp
°C
App
Temp
°C
Dew
Point
°C
Rel
Hum
%
Delta-T
°C
Wind Press
QNH
hPa
Press
MSL
hPa
Rain since
9am
mm
Dir  Spd
km/h
Gust
km/h
Spd
kts
Gust
kts
29/11:54pm -2.5 -4.9 -3.0 96 0.1 CALM 0 0 0 0 1022.4 1023.0 0.0
29/11:36pm -3.3 -5.8 -4.3 93 0.2 CALM 0 0 0 0 1022.5 1023.1 0.0
29/11:30pm -2.1 -4.5 -2.8 95 0.1 CALM 0 0 0 0 1022.6 1023.3 0.0
29/11:14pm -2.4 -4.8 -3.4 93 0.2 CALM 0 0 0 0 1022.5 1023.1 0.0
29/11:09pm -2.0 -4.4 -3.0 93 0.3 CALM 0 0 0 0 1022.5 1023.1 0.0
29/11:00pm -1.5 -3.8 -2.5 93 0.3 CALM 0 0 0 0 1022.6 1023.3 0.0
29/10:30pm -0.8 -3.0 -1.6 94 0.3 CALM 0 0 0 0 1022.6 1023.3 0.0
29/10:00pm 0.2 -1.9 -0.6 94 0.3 CALM 0 0 0 0 1022.4 1023.0 0.0
29/09:30pm 0.9 -1.2 -0.5 90 0.5 CALM 0 0 0 0 1022.5 1023.1 0.0
29/09:00pm 2.0 0.0 -0.2 85 0.9 CALM 0 0 0 0 1022.5 1023.1 0.0
29/08:30pm 4.1 2.2 0.6 78 1.4 CALM 0 0 0 0 1022.5 1023.1 0.0
29/08:00pm 6.6 5.0 2.5 75 1.8 CALM 0 0 0 0 1022.5 1023.1 0.0
29/07:30pm 6.2 4.6 2.7 78 1.5 CALM 0 0 0 0 1022.5 1023.1 0.0
29/07:00pm 4.7 3.0 1.6 80 1.3 CALM 0 0 0 0 1022.3 1022.9 0.0
29/06:30pm 4.3 2.4 0.3 75 1.6 CALM 0 0 0 0 1021.9 1022.6 0.0
29/06:00pm 6.0 2.4 0.6 68 2.3 WNW 9 11 5 6 1021.6 1022.2 0.0
29/05:30pm 8.0 4.5 1.0 61 3.0 WNW 9 11 5 6 1021.5 1022.1 0.0
29/05:00pm 11.3 7.0 1.3 50 4.5 W 13 19 7 10 1021.5 1022.1 0.0
29/04:30pm 13.2 8.5 0.9 43 5.5 W 15 19 8 10 1021.3 1021.9 0.0
29/04:00pm 14.2 9.1 0.5 39 6.2 W 17 24 9 13 1021.2 1021.8 0.0
29/03:30pm 15.1 9.9 0.2 36 6.7 WNW 17 24 9 13 1021.3 1021.9 0.0
29/03:00pm 15.8 10.6 0.0 34 7.1 W 17 22 9 12 1021.3 1021.9 0.0
29/02:30pm 15.8 10.0 -1.3 31 7.5 W 19 24 10 13 1021.3 1021.9 0.0
29/02:00pm 16.2 10.9 -0.5 32 7.5 WNW 17 26 9 14 1021.4 1022.0 0.0
29/01:30pm 15.7 10.3 -1.4 31 7.5 WNW 17 24 9 13 1021.6 1022.2 0.0
29/01:00pm 15.7 10.8 -0.5 33 7.2 W 15 20 8 11 1021.9 1022.6 0.0
29/12:30pm 15.1 10.1 -1.5 32 7.2 W 15 20 8 11 1022.5 1023.1 0.0
29/12:00pm 14.9 9.8 -2.1 31 7.3 WNW 15 24 8 13 1023.0 1023.7 0.0
29/11:30am 14.1 9.6 0.0 38 6.3 W 13 19 7 10 1023.6 1024.3 0.0
29/11:00am 13.6 8.5 -1.6 35 6.5 W 15 22 8 12 1024.0 1024.7 0.0
29/10:30am 13.1 9.4 0.2 41 5.7 W 9 15 5 8 1024.4 1025.1 0.0
29/10:00am 11.4 9.5 0.8 48 4.7 CALM 0 0 0 0 1024.7 1025.4 0.0
29/09:30am 9.6 7.8 1.0 55 3.8 CALM 0 0 0 0 1024.6 1025.3 0.0
29/09:00am 6.9 5.2 2.0 71 2.1 CALM 0 0 0 0 1024.4 1025.1 0.0
29/08:30am 3.6 1.8 1.5 86 0.9 CALM 0 0 0 0 1024.4 1025.1 0.0
29/08:00am 0.4 -1.7 -0.6 93 0.4 CALM 0 0 0 0 1024.4 1025.1 0.0
29/07:30am -2.4 -4.8 -2.9 96 0.1 CALM 0 0 0 0 1024.3 1025.0 0.0
29/07:00am -5.3 -8.0 -6.2 93 0.1 CALM 0 0 0 0 1024.1 1024.8 0.0
29/06:30am -5.6 -8.3 -6.4 94 0.0 CALM 0 0 0 0 1023.9 1024.6 0.0
29/06:00am -5.5 -8.2 -6.4 93 0.1 CALM 0 0 0 0 1023.7 1024.4 0.0
29/05:30am -4.9 -9.7 -5.6 95 0.0 E 11 13 6 7 1023.5 1024.2 0.0
29/05:00am -4.8 -7.4 -5.3 96 0.0 CALM 0 0 0 0 1023.3 1023.9 0.0
29/04:30am -5.0 -9.4 -5.8 94 0.0 ESE 9 13 5 7 1023.3 1023.9 0.0
29/04:00am -4.3 -7.3 -5.0 95 0.0 ESE 2 7 1 4 1023.4 1024.1 0.0
29/03:30am -4.4 -7.0 -5.4 93 0.1 CALM 0 0 0 0 1023.4 1024.1 0.0
29/03:00am -4.4 -7.8 -5.1 95 0.0 SE 4 13 2 7 1023.7 1024.4 0.0
29/02:30am -4.7 -7.3 -5.4 95 0.0 CALM 0 7 0 4 1023.8 1024.5 0.0
29/02:00am -4.7 -7.4 -5.8 92 0.2 CALM 0 0 0 0 1023.8 1024.5 0.0
29/01:30am -3.5 -6.1 -4.5 93 0.2 CALM 0 0 0 0 1024.0 1024.7 0.0
29/01:00am -3.5 -6.1 -4.5 93 0.2 CALM 0 0 0 0 1024.0 1024.7 0.0
29/12:30am -2.9 -5.4 -3.7 94 0.1 CALM 0 0 0 0 1024.0 1024.7 0.0
29/12:00am -3.4 -6.0 -4.7 91 0.3 CALM 0 0 0 0 1024.1 1024.8 0.0
 
Date/Time
EST
Temp
°C
App
Temp
°C
Dew
Point
°C
Rel
Hum
%
Delta-T
°C
Wind Press
QNH
hPa
Press
MSL
hPa
Rain since
9am
mm
Dir  Spd
km/h
Gust
km/h
Spd
kts
Gust
kts
28/11:30pm -2.6 -5.1 -3.9 91 0.3 CALM 0 0 0 0 1024.4 1025.1 0.0
28/11:00pm -2.0 -4.4 -3.4 90 0.4 CALM 0 0 0 0 1024.4 1025.1 0.0
28/10:30pm -2.7 -5.2 -4.4 88 0.5 CALM 0 0 0 0 1024.5 1025.2 0.0
28/10:00pm -1.6 -4.0 -3.0 90 0.4 CALM 0 0 0 0 1024.6 1025.3 0.0
28/09:30pm -1.3 -3.7 -3.5 85 0.7 CALM 0 0 0 0 1024.5 1025.2 0.0
28/09:00pm -1.1 -3.5 -3.3 85 0.7 CALM 0 0 0 0 1024.5 1025.2 0.0
28/08:30pm 0.5 -1.9 -2.9 78 1.3 CALM 0 0 0 0 1024.6 1025.3 0.0
28/08:00pm 3.6 1.4 -1.7 68 2.0 CALM 0 0 0 0 1024.6 1025.3 0.0
28/07:30pm 1.9 -0.6 -3.6 67 2.1 CALM 0 0 0 0 1024.5 1025.2 0.0
28/07:00pm 4.8 2.6 -1.8 62 2.6 CALM 0 0 0 0 1024.4 1025.1 0.0
28/06:30pm 6.1 3.9 -1.3 59 3.0 CALM 0 0 0 0 1024.0 1024.7 0.0
28/06:00pm 8.2 5.9 -2.7 46 4.3 CALM 0 0 0 0 1024.0 1024.7 0.0
28/05:30pm 9.1 5.4 -2.8 43 4.7 W 7 9 4 5 1023.9 1024.6 0.0
28/05:00pm 10.9 7.4 -2.5 39 5.5 W 6 9 3 5 1023.6 1024.3 0.0
28/04:30pm 12.5 7.9 -3.7 32 6.6 W 11 15 6 8 1023.5 1024.2 0.0
28/04:00pm 13.3 8.2 -4.8 28 7.2 WSW 13 17 7 9 1023.4 1024.1 0.0
28/03:30pm 13.7 7.8 -5.4 26 7.5 WSW 17 20 9 11 1023.4 1024.1 0.0
28/03:00pm 14.1 8.0 -4.1 28 7.4 WSW 19 24 10 13 1023.1 1023.8 0.0
28/02:30pm 14.3 9.3 -3.9 28 7.5 W 13 20 7 11 1023.1 1023.8 0.0
28/02:00pm 14.5 9.7 -6.4 23 8.1 W 11 24 6 13 1023.3 1023.9 0.0
28/01:30pm 15.0 10.4 -3.8 27 7.8 WSW 11 20 6 11 1023.5 1024.2 0.0
28/01:00pm 14.6 8.9 -7.4 21 8.4 WNW 15 24 8 13 1023.8 1024.5 0.0
28/12:30pm 13.9 8.1 -8.7 20 8.3 W 15 24 8 13 1024.1 1024.8 0.0
28/12:00pm 13.5 8.8 -9.6 19 8.2 W 9 17 5 9 1024.6 1025.3 0.0
28/11:30am 12.8 9.8 -8.9 21 7.8 CALM 0 0 0 0 1024.7 1025.4 0.0
28/11:00am 12.3 9.3 -8.8 22 7.6 CALM 0 0 0 0 1025.0 1025.8 0.0
28/10:30am 11.6 8.8 -7.2 26 7.0 CALM 0 0 0 0 1025.3 1026.0 0.0
28/10:00am 9.4 7.4 -0.2 51 4.1 CALM 0 0 0 0 1025.4 1026.1 0.0
28/09:30am 7.5 5.6 0.3 60 3.0 CALM 0 0 0 0 1025.4 1026.1 0.0
28/09:00am 5.5 3.6 0.5 70 2.1 CALM 0 0 0 0 1025.0 1025.8 0.0
28/08:30am 3.2 1.3 0.3 81 1.2 CALM 0 0 0 0 1025.1 1025.9 0.0
28/08:00am 0.8 -1.3 -0.5 91 0.5 CALM 0 0 0 0 1024.9 1025.6 0.0
28/07:30am -1.8 -4.1 -2.2 97 0.1 CALM 0 0 0 0 1024.5 1025.2 0.0
28/07:00am -4.8 -7.4 -5.3 96 0.0 CALM 0 0 0 0 1023.9 1024.6 0.0

Other Formats:

Comma delimited format used in spreadsheet applications
http://www.bom.gov.au/fwo/IDN60801/IDN60801.94588.axf

JavaScript Object Notation format (JSON) in row-major order
http://www.bom.gov.au/fwo/IDN60801/IDN60801.94588.json